sensor_id;sensor_type;location;lat;lon;timestamp;pressure;altitude;pressure_sealevel;temperature;humidity
29549;BME280;16487;53.094;8.800;2022-10-31T00:01:11;102216.59;;;14.67;100.00
29549;BME280;16487;53.094;8.800;2022-10-31T00:03:39;102215.94;;;14.60;100.00
29549;BME280;16487;53.094;8.800;2022-10-31T00:06:06;102220.50;;;14.54;100.00
29549;BME280;16487;53.094;8.800;2022-10-31T00:08:34;102233.22;;;14.58;100.00
29549;BME280;16487;53.094;8.800;2022-10-31T00:11:01;102230.50;;;14.55;100.00
29549;BME280;16487;53.094;8.800;2022-10-31T00:13:29;102230.13;;;14.53;100.00
29549;BME280;16487;53.094;8.800;2022-10-31T00:15:57;102248.66;;;14.50;100.00
29549;BME280;16487;53.094;8.800;2022-10-31T00:18:25;102251.88;;;14.49;100.00
29549;BME280;16487;53.094;8.800;2022-10-31T00:20:58;102254.47;;;14.40;100.00
29549;BME280;16487;53.094;8.800;2022-10-31T00:23:26;102254.56;;;14.36;100.00
29549;BME280;16487;53.094;8.800;2022-10-31T00:25:53;102268.13;;;14.38;100.00
29549;BME280;16487;53.094;8.800;2022-10-31T00:28:20;102265.84;;;14.33;100.00
29549;BME280;16487;53.094;8.800;2022-10-31T00:30:48;102275.91;;;14.30;100.00
29549;BME280;16487;53.094;8.800;2022-10-31T00:33:16;102277.56;;;14.28;100.00
29549;BME280;16487;53.094;8.800;2022-10-31T00:35:49;102284.78;;;14.25;100.00
29549;BME280;16487;53.094;8.800;2022-10-31T00:38:16;102284.78;;;14.25;100.00
29549;BME280;16487;53.094;8.800;2022-10-31T00:40:44;102288.53;;;14.19;100.00
29549;BME280;16487;53.094;8.800;2022-10-31T00:43:11;102296.06;;;14.22;100.00
29549;BME280;16487;53.094;8.800;2022-10-31T00:45:43;102296.94;;;14.19;100.00
29549;BME280;16487;53.094;8.800;2022-10-31T00:48:11;102290.59;;;14.15;100.00
29549;BME280;16487;53.094;8.800;2022-10-31T00:50:40;102309.91;;;14.13;100.00
29549;BME280;16487;53.094;8.800;2022-10-31T00:53:07;102319.81;;;14.17;100.00
29549;BME280;16487;53.094;8.800;2022-10-31T00:55:34;102330.72;;;14.12;100.00
29549;BME280;16487;53.094;8.800;2022-10-31T00:58:02;102327.94;;;14.12;100.00
29549;BME280;16487;53.094;8.800;2022-10-31T01:00:30;102336.84;;;14.07;100.00
29549;BME280;16487;53.094;8.800;2022-10-31T01:02:57;102340.50;;;14.04;100.00
29549;BME280;16487;53.094;8.800;2022-10-31T01:05:25;102349.41;;;13.99;100.00
29549;BME280;16487;53.094;8.800;2022-10-31T01:07:54;102350.25;;;13.96;100.00
29549;BME280;16487;53.094;8.800;2022-10-31T01:10:21;102357.50;;;13.93;100.00
29549;BME280;16487;53.094;8.800;2022-10-31T01:12:50;102363.97;;;13.90;100.00
29549;BME280;16487;53.094;8.800;2022-10-31T01:15:19;102375.25;;;13.87;100.00
29549;BME280;16487;53.094;8.800;2022-10-31T01:17:48;102382.44;;;13.88;100.00
29549;BME280;16487;53.094;8.800;2022-10-31T01:20:16;102397.72;;;13.83;100.00
29549;BME280;16487;53.094;8.800;2022-10-31T01:22:44;102416.97;;;13.81;100.00
29549;BME280;16487;53.094;8.800;2022-10-31T01:25:13;102424.22;;;13.78;100.00
29549;BME280;16487;53.094;8.800;2022-10-31T01:27:41;102432.69;;;13.75;100.00
29549;BME280;16487;53.094;8.800;2022-10-31T01:30:09;102448.25;;;13.79;100.00
29549;BME280;16487;53.094;8.800;2022-10-31T01:32:36;102453.03;;;13.79;100.00
29549;BME280;16487;53.094;8.800;2022-10-31T01:35:04;102468.28;;;13.78;100.00
29549;BME280;16487;53.094;8.800;2022-10-31T01:37:31;102477.16;;;13.73;100.00
29549;BME280;16487;53.094;8.800;2022-10-31T01:39:59;102489.22;;;13.70;100.00
29549;BME280;16487;53.094;8.800;2022-10-31T01:42:27;102498.50;;;13.63;100.00
29549;BME280;16487;53.094;8.800;2022-10-31T01:44:58;102500.22;;;13.57;100.00
29549;BME280;16487;53.094;8.800;2022-10-31T01:47:44;102517.38;;;13.59;100.00
29549;BME280;16487;53.094;8.800;2022-10-31T01:50:26;102537.88;;;13.53;100.00
29549;BME280;16487;53.094;8.800;2022-10-31T01:52:55;102560.72;;;13.51;100.00
29549;BME280;16487;53.094;8.800;2022-10-31T01:55:26;102576.72;;;13.51;100.00
29549;BME280;16487;53.094;8.800;2022-10-31T01:58:02;102581.56;;;13.50;100.00
29549;BME280;16487;53.094;8.800;2022-10-31T02:00:31;102593.56;;;13.47;100.00
29549;BME280;16487;53.094;8.800;2022-10-31T02:02:59;102615.25;;;13.43;100.00
29549;BME280;16487;53.094;8.800;2022-10-31T02:05:29;102637.63;;;13.47;100.00
29549;BME280;16487;53.094;8.800;2022-10-31T02:08:01;102646.03;;;13.47;100.00
29549;BME280;16487;53.094;8.800;2022-10-31T02:10:31;102663.22;;;13.45;100.00
29549;BME280;16487;53.094;8.800;2022-10-31T02:13:04;102685.28;;;13.43;100.00
29549;BME280;16487;53.094;8.800;2022-10-31T02:15:35;102711.19;;;13.51;100.00
29549;BME280;16487;53.094;8.800;2022-10-31T02:18:03;102733.66;;;13.47;100.00
29549;BME280;16487;53.094;8.800;2022-10-31T02:20:35;102749.31;;;13.41;100.00
29549;BME280;16487;53.094;8.800;2022-10-31T02:23:20;102774.53;;;13.41;100.00
29549;BME280;16487;53.094;8.800;2022-10-31T02:26:13;102805.78;;;13.36;100.00
29549;BME280;16487;53.094;8.800;2022-10-31T02:31:51;102850.66;;;13.29;100.00
29549;BME280;16487;53.094;8.800;2022-10-31T02:34:25;102875.47;;;13.27;100.00
29549;BME280;16487;53.094;8.800;2022-10-31T02:37:03;102907.09;;;13.24;100.00
29549;BME280;16487;53.094;8.800;2022-10-31T02:39:41;102941.13;;;13.19;100.00
29549;BME280;16487;53.094;8.800;2022-10-31T02:42:28;102982.75;;;13.17;100.00
29549;BME280;16487;53.094;8.800;2022-10-31T02:45:00;103018.34;;;13.13;100.00
29549;BME280;16487;53.094;8.800;2022-10-31T02:47:37;103059.53;;;13.16;100.00
29549;BME280;16487;53.094;8.800;2022-10-31T02:50:08;103094.38;;;13.12;100.00
29549;BME280;16487;53.094;8.800;2022-10-31T02:52:38;103127.16;;;13.08;100.00
29549;BME280;16487;53.094;8.800;2022-10-31T02:55:10;103144.38;;;13.13;100.00
29549;BME280;16487;53.094;8.800;2022-10-31T02:57:40;103177.97;;;13.13;100.00
29549;BME280;16487;53.094;8.800;2022-10-31T03:00:09;103196.38;;;13.07;100.00
29549;BME280;16487;53.094;8.800;2022-10-31T03:02:46;103228.38;;;13.10;100.00
29549;BME280;16487;53.094;8.800;2022-10-31T03:05:51;103257.19;;;13.10;100.00
29549;BME280;16487;53.094;8.800;2022-10-31T03:08:25;103286.00;;;13.07;100.00
29549;BME280;16487;53.094;8.800;2022-10-31T03:10:56;103310.81;;;13.12;100.00
29549;BME280;16487;53.094;8.800;2022-10-31T03:13:33;103332.38;;;13.05;100.00
29549;BME280;16487;53.094;8.800;2022-10-31T03:16:08;103352.38;;;13.03;100.00
29549;BME280;16487;53.094;8.800;2022-10-31T03:18:40;103379.94;;;13.01;100.00
29549;BME280;16487;53.094;8.800;2022-10-31T03:21:12;103390.72;;;12.99;100.00
29549;BME280;16487;53.094;8.800;2022-10-31T03:23:43;103416.34;;;13.01;100.00
29549;BME280;16487;53.094;8.800;2022-10-31T03:26:19;103437.91;;;12.97;100.00
29549;BME280;16487;53.094;8.800;2022-10-31T03:28:50;103444.31;;;12.98;100.00
29549;BME280;16487;53.094;8.800;2022-10-31T03:31:23;103451.50;;;12.95;100.00
29549;BME280;16487;53.094;8.800;2022-10-31T03:33:54;103468.28;;;12.95;100.00
29549;BME280;16487;53.094;8.800;2022-10-31T03:36:23;103484.31;;;12.95;100.00
29549;BME280;16487;53.094;8.800;2022-10-31T03:38:53;103501.91;;;12.95;100.00
29549;BME280;16487;53.094;8.800;2022-10-31T03:41:24;103516.28;;;12.94;100.00
29549;BME280;16487;53.094;8.800;2022-10-31T03:43:57;103525.03;;;12.85;100.00
29549;BME280;16487;53.094;8.800;2022-10-31T03:46:27;103537.88;;;12.86;100.00
29549;BME280;16487;53.094;8.800;2022-10-31T03:48:58;103553.06;;;12.89;100.00
29549;BME280;16487;53.094;8.800;2022-10-31T03:51:30;103578.66;;;12.87;100.00
29549;BME280;16487;53.094;8.800;2022-10-31T03:54:07;103593.84;;;12.86;100.00
29549;BME280;16487;53.094;8.800;2022-10-31T03:56:42;103605.81;;;12.87;100.00
29549;BME280;16487;53.094;8.800;2022-10-31T03:59:16;103609.81;;;12.82;100.00
29549;BME280;16487;53.094;8.800;2022-10-31T04:01:49;103619.00;;;12.79;100.00
29549;BME280;16487;53.094;8.800;2022-10-31T04:04:20;103634.53;;;12.73;100.00
29549;BME280;16487;53.094;8.800;2022-10-31T04:06:50;103637.78;;;12.79;100.00
29549;BME280;16487;53.094;8.800;2022-10-31T04:09:19;103650.50;;;12.69;100.00
29549;BME280;16487;53.094;8.800;2022-10-31T04:11:52;103670.47;;;12.71;100.00
29549;BME280;16487;53.094;8.800;2022-10-31T04:14:39;103679.31;;;12.73;100.00
29549;BME280;16487;53.094;8.800;2022-10-31T04:17:12;103686.50;;;12.71;100.00
29549;BME280;16487;53.094;8.800;2022-10-31T04:19:43;103700.09;;;12.72;100.00
29549;BME280;16487;53.094;8.800;2022-10-31T04:22:10;103716.94;;;12.76;100.00
29549;BME280;16487;53.094;8.800;2022-10-31T04:24:39;103732.56;;;12.80;100.00
29549;BME280;16487;53.094;8.800;2022-10-31T04:27:08;103736.91;;;12.74;100.00
29549;BME280;16487;53.094;8.800;2022-10-31T04:29:35;103744.03;;;12.68;100.00
29549;BME280;16487;53.094;8.800;2022-10-31T04:32:03;103748.03;;;12.67;100.00
29549;BME280;16487;53.094;8.800;2022-10-31T04:34:30;103766.47;;;12.72;100.00
29549;BME280;16487;53.094;8.800;2022-10-31T04:36:59;103768.41;;;12.67;100.00
29549;BME280;16487;53.094;8.800;2022-10-31T04:39:27;103770.78;;;12.62;99.48
29549;BME280;16487;53.094;8.800;2022-10-31T04:42:13;103786.34;;;12.63;98.49
29549;BME280;16487;53.094;8.800;2022-10-31T04:44:40;103796.00;;;12.65;97.41
29549;BME280;16487;53.094;8.800;2022-10-31T04:47:08;103796.34;;;12.64;96.73
29549;BME280;16487;53.094;8.800;2022-10-31T04:49:35;103804.00;;;12.67;95.80
29549;BME280;16487;53.094;8.800;2022-10-31T04:52:04;103806.38;;;12.65;95.16
29549;BME280;16487;53.094;8.800;2022-10-31T04:54:32;103808.75;;;12.63;96.87
29549;BME280;16487;53.094;8.800;2022-10-31T04:57:40;103834.44;;;12.72;95.23
29549;BME280;16487;53.094;8.800;2022-10-31T05:00:09;103837.59;;;12.67;94.95
29549;BME280;16487;53.094;8.800;2022-10-31T05:02:43;103836.25;;;12.57;94.82
29549;BME280;16487;53.094;8.800;2022-10-31T05:05:11;103832.22;;;12.51;94.51
29549;BME280;16487;53.094;8.800;2022-10-31T05:07:41;103841.81;;;12.54;93.67
29549;BME280;16487;53.094;8.800;2022-10-31T05:10:09;103844.97;;;12.49;93.29
29549;BME280;16487;53.094;8.800;2022-10-31T05:12:38;103851.75;;;12.48;92.64
29549;BME280;16487;53.094;8.800;2022-10-31T05:15:35;103861.25;;;12.43;92.33
29549;BME280;16487;53.094;8.800;2022-10-31T05:18:20;103862.09;;;12.44;91.71
29549;BME280;16487;53.094;8.800;2022-10-31T05:20:54;103851.91;;;12.29;92.16
29549;BME280;16487;53.094;8.800;2022-10-31T05:23:27;103860.72;;;12.31;91.53
29549;BME280;16487;53.094;8.800;2022-10-31T05:25:54;103876.66;;;12.27;91.13
29549;BME280;16487;53.094;8.800;2022-10-31T05:28:22;103885.81;;;12.24;90.64
29549;BME280;16487;53.094;8.800;2022-10-31T05:30:49;103875.69;;;12.16;90.65
29549;BME280;16487;53.094;8.800;2022-10-31T05:33:16;103889.19;;;12.10;90.41
29549;BME280;16487;53.094;8.800;2022-10-31T05:36:03;103890.38;;;12.09;89.94
29549;BME280;16487;53.094;8.800;2022-10-31T05:38:51;103900.22;;;12.00;89.84
29549;BME280;16487;53.094;8.800;2022-10-31T05:41:30;103897.84;;;12.02;89.17
29549;BME280;16487;53.094;8.800;2022-10-31T05:44:13;103905.72;;;11.93;89.13
29549;BME280;16487;53.094;8.800;2022-10-31T05:46:53;103919.75;;;11.96;88.61
29549;BME280;16487;53.094;8.800;2022-10-31T05:49:38;103936.44;;;11.93;88.35
29549;BME280;16487;53.094;8.800;2022-10-31T05:52:44;103940.28;;;11.85;88.24
29549;BME280;16487;53.094;8.800;2022-10-31T05:55:35;103949.00;;;11.80;88.09
29549;BME280;16487;53.094;8.800;2022-10-31T05:58:11;103958.19;;;11.80;87.74
29549;BME280;16487;53.094;8.800;2022-10-31T06:00:42;103957.69;;;11.75;87.97
29549;BME280;16487;53.094;8.800;2022-10-31T06:03:11;103973.00;;;11.81;87.35
29549;BME280;16487;53.094;8.800;2022-10-31T06:05:45;103986.34;;;11.91;86.64
29549;BME280;16487;53.094;8.800;2022-10-31T06:08:20;103992.56;;;11.81;86.74
29549;BME280;16487;53.094;8.800;2022-10-31T06:10:50;104013.66;;;11.78;86.47
29549;BME280;16487;53.094;8.800;2022-10-31T06:13:23;104015.94;;;11.73;86.40
29549;BME280;16487;53.094;8.800;2022-10-31T06:15:58;104022.28;;;11.70;86.25
29549;BME280;16487;53.094;8.800;2022-10-31T06:18:33;104037.44;;;11.69;85.77
29549;BME280;16487;53.094;8.800;2022-10-31T06:21:00;104027.00;;;11.66;85.69
29549;BME280;16487;53.094;8.800;2022-10-31T06:23:28;104033.78;;;11.65;85.51
29549;BME280;16487;53.094;8.800;2022-10-31T06:26:16;104039.06;;;11.70;85.10
29549;BME280;16487;53.094;8.800;2022-10-31T06:28:44;104046.25;;;11.71;84.79
29549;BME280;16487;53.094;8.800;2022-10-31T06:31:31;104086.69;;;11.77;84.17
29549;BME280;16487;53.094;8.800;2022-10-31T06:33:58;104102.34;;;11.81;83.62
29549;BME280;16487;53.094;8.800;2022-10-31T06:36:26;104120.31;;;11.80;83.37
29549;BME280;16487;53.094;8.800;2022-10-31T06:38:59;104140.00;;;11.87;82.68
29549;BME280;16487;53.094;8.800;2022-10-31T06:41:28;104136.63;;;11.78;82.75
29549;BME280;16487;53.094;8.800;2022-10-31T06:43:59;104142.16;;;11.75;82.70
29549;BME280;16487;53.094;8.800;2022-10-31T06:47:05;104148.47;;;11.72;82.53
29549;BME280;16487;53.094;8.800;2022-10-31T06:49:54;104151.66;;;11.70;82.36
29549;BME280;16487;53.094;8.800;2022-10-31T06:52:23;104158.78;;;11.68;82.26
29549;BME280;16487;53.094;8.800;2022-10-31T06:54:51;104145.25;;;11.70;82.19
29549;BME280;16487;53.094;8.800;2022-10-31T06:57:20;104143.03;;;11.79;81.91
29549;BME280;16487;53.094;8.800;2022-10-31T06:59:49;104161.72;;;11.75;81.91
29549;BME280;16487;53.094;8.800;2022-10-31T07:02:25;104176.94;;;11.77;81.65
29549;BME280;16487;53.094;8.800;2022-10-31T07:04:52;104186.28;;;11.85;81.34
29549;BME280;16487;53.094;8.800;2022-10-31T07:07:19;104203.03;;;11.85;81.14
29549;BME280;16487;53.094;8.800;2022-10-31T07:09:46;104208.63;;;11.85;81.08
29549;BME280;16487;53.094;8.800;2022-10-31T07:12:16;104218.94;;;11.81;81.12
29549;BME280;16487;53.094;8.800;2022-10-31T07:14:54;104231.81;;;11.85;80.81
29549;BME280;16487;53.094;8.800;2022-10-31T07:17:23;104247.53;;;11.74;80.95
29549;BME280;16487;53.094;8.800;2022-10-31T07:19:57;104244.66;;;11.71;80.96
29549;BME280;16487;53.094;8.800;2022-10-31T07:22:32;104251.53;;;11.73;80.75
29549;BME280;16487;53.094;8.800;2022-10-31T07:24:59;104265.13;;;11.75;80.62
29549;BME280;16487;53.094;8.800;2022-10-31T07:27:36;104260.44;;;11.79;80.51
29549;BME280;16487;53.094;8.800;2022-10-31T07:30:12;104265.13;;;11.75;80.50
29549;BME280;16487;53.094;8.800;2022-10-31T07:32:40;104263.34;;;11.67;80.67
29549;BME280;16487;53.094;8.800;2022-10-31T07:35:09;104259.38;;;11.68;80.57
29549;BME280;16487;53.094;8.800;2022-10-31T07:37:46;104279.25;;;11.82;80.21
29549;BME280;16487;53.094;8.800;2022-10-31T07:40:15;104288.84;;;11.81;80.12
29549;BME280;16487;53.094;8.800;2022-10-31T07:42:44;104298.53;;;11.87;79.88
29549;BME280;16487;53.094;8.800;2022-10-31T07:45:33;104301.34;;;11.87;79.74
29549;BME280;16487;53.094;8.800;2022-10-31T07:48:20;104310.78;;;11.98;79.50
29549;BME280;16487;53.094;8.800;2022-10-31T07:51:07;104314.28;;;11.95;79.42
29549;BME280;16487;53.094;8.800;2022-10-31T07:53:57;104303.38;;;11.90;79.60
29549;BME280;16487;53.094;8.800;2022-10-31T07:56:30;104320.16;;;11.90;79.49
29549;BME280;16487;53.094;8.800;2022-10-31T07:58:57;104349.19;;;12.01;79.07
29549;BME280;16487;53.094;8.800;2022-10-31T08:01:26;104329.97;;;11.99;79.15
29549;BME280;16487;53.094;8.800;2022-10-31T08:04:13;104358.13;;;11.91;79.24
29549;BME280;16487;53.094;8.800;2022-10-31T08:06:59;104360.56;;;11.92;79.25
29549;BME280;16487;53.094;8.800;2022-10-31T08:09:31;104360.19;;;11.94;79.29
29549;BME280;16487;53.094;8.800;2022-10-31T08:12:03;104368.22;;;11.95;79.21
29549;BME280;16487;53.094;8.800;2022-10-31T08:14:33;104382.44;;;12.06;78.91
29549;BME280;16487;53.094;8.800;2022-10-31T08:17:02;104389.81;;;12.14;78.74
29549;BME280;16487;53.094;8.800;2022-10-31T08:19:39;104414.63;;;12.50;77.95
29549;BME280;16487;53.094;8.800;2022-10-31T08:22:08;104421.38;;;12.49;78.05
29549;BME280;16487;53.094;8.800;2022-10-31T08:24:36;104447.38;;;12.49;77.96
29549;BME280;16487;53.094;8.800;2022-10-31T08:27:08;104461.22;;;12.61;77.73
29549;BME280;16487;53.094;8.800;2022-10-31T08:29:37;104487.13;;;12.74;77.36
29549;BME280;16487;53.094;8.800;2022-10-31T08:32:06;104477.34;;;12.49;77.92
29549;BME280;16487;53.094;8.800;2022-10-31T08:34:52;104515.81;;;12.71;77.38
29549;BME280;16487;53.094;8.800;2022-10-31T08:37:28;104540.47;;;12.81;77.13
29549;BME280;16487;53.094;8.800;2022-10-31T08:39:55;104560.34;;;12.95;76.85
29549;BME280;16487;53.094;8.800;2022-10-31T08:42:23;104587.09;;;13.08;76.58
29549;BME280;16487;53.094;8.800;2022-10-31T08:44:51;104587.19;;;12.96;76.76
29549;BME280;16487;53.094;8.800;2022-10-31T08:47:22;104588.81;;;12.97;76.81
29549;BME280;16487;53.094;8.800;2022-10-31T08:49:49;104612.59;;;13.03;76.66
29549;BME280;16487;53.094;8.800;2022-10-31T08:52:17;104633.84;;;13.23;76.36
29549;BME280;16487;53.094;8.800;2022-10-31T08:54:47;104613.75;;;13.02;77.01
29549;BME280;16487;53.094;8.800;2022-10-31T08:57:46;104636.19;;;13.21;76.81
29549;BME280;16487;53.094;8.800;2022-10-31T09:00:13;104669.47;;;13.61;76.19
29549;BME280;16487;53.094;8.800;2022-10-31T09:02:59;104682.63;;;13.38;76.71
29549;BME280;16487;53.094;8.800;2022-10-31T09:05:29;104704.00;;;13.46;76.59
29549;BME280;16487;53.094;8.800;2022-10-31T09:07:57;104723.28;;;13.66;76.35
29549;BME280;16487;53.094;8.800;2022-10-31T09:10:27;104743.13;;;13.77;76.33
29549;BME280;16487;53.094;8.800;2022-10-31T09:12:55;104750.47;;;13.82;76.32
29549;BME280;16487;53.094;8.800;2022-10-31T09:15:49;104754.13;;;13.66;76.91
29549;BME280;16487;53.094;8.800;2022-10-31T09:18:25;104771.25;;;13.80;76.63
29549;BME280;16487;53.094;8.800;2022-10-31T09:20:58;104777.59;;;13.77;76.90
29549;BME280;16487;53.094;8.800;2022-10-31T09:23:28;104813.66;;;14.14;76.35
29549;BME280;16487;53.094;8.800;2022-10-31T09:25:55;104809.38;;;14.01;76.81
29549;BME280;16487;53.094;8.800;2022-10-31T09:28:28;104839.53;;;14.42;76.17
29549;BME280;16487;53.094;8.800;2022-10-31T09:31:00;104830.81;;;14.28;76.68
29549;BME280;16487;53.094;8.800;2022-10-31T09:33:47;104814.94;;;14.16;77.32
29549;BME280;16487;53.094;8.800;2022-10-31T09:36:30;104800.16;;;14.19;77.79
29549;BME280;16487;53.094;8.800;2022-10-31T09:38:57;104827.69;;;14.52;77.44
29549;BME280;16487;53.094;8.800;2022-10-31T09:41:30;104841.81;;;14.97;77.09
29549;BME280;16487;53.094;8.800;2022-10-31T09:44:06;104839.69;;;15.13;77.60
29549;BME280;16487;53.094;8.800;2022-10-31T09:46:46;104817.00;;;15.48;78.39
29549;BME280;16487;53.094;8.800;2022-10-31T09:49:29;104766.59;;;15.95;79.27
29549;BME280;16487;53.094;8.800;2022-10-31T09:52:03;104639.56;;;16.37;81.67
29549;BME280;16487;53.094;8.800;2022-10-31T09:54:36;104431.56;;;18.05;83.21
29549;BME280;16487;53.094;8.800;2022-10-31T09:57:13;103740.19;;;18.11;100.00
29549;BME280;16487;53.094;8.800;2022-10-31T09:59:46;103427.59;;;19.13;100.00
29549;BME280;16487;53.094;8.800;2022-10-31T10:02:20;103139.63;;;19.56;100.00
29549;BME280;16487;53.094;8.800;2022-10-31T10:04:54;102825.81;;;18.99;100.00
29549;BME280;16487;53.094;8.800;2022-10-31T10:07:32;102658.03;;;18.93;100.00
29549;BME280;16487;53.094;8.800;2022-10-31T10:10:43;102462.97;;;18.50;100.00
29549;BME280;16487;53.094;8.800;2022-10-31T10:13:48;102422.34;;;18.35;100.00
29549;BME280;16487;53.094;8.800;2022-10-31T10:16:33;102356.31;;;18.75;100.00
29549;BME280;16487;53.094;8.800;2022-10-31T10:19:14;102311.91;;;18.76;100.00
29549;BME280;16487;53.094;8.800;2022-10-31T10:21:52;102288.88;;;19.66;100.00
29549;BME280;16487;53.094;8.800;2022-10-31T10:24:37;102272.53;;;18.51;100.00
29549;BME280;16487;53.094;8.800;2022-10-31T10:27:20;102280.00;;;18.23;100.00
29549;BME280;16487;53.094;8.800;2022-10-31T10:29:56;102306.75;;;17.97;100.00
29549;BME280;16487;53.094;8.800;2022-10-31T10:32:28;102318.56;;;17.45;100.00
29549;BME280;16487;53.094;8.800;2022-10-31T10:35:00;102340.44;;;17.66;100.00
29549;BME280;16487;53.094;8.800;2022-10-31T10:37:33;102342.16;;;17.98;100.00
29549;BME280;16487;53.094;8.800;2022-10-31T10:40:08;102338.00;;;18.02;100.00
29549;BME280;16487;53.094;8.800;2022-10-31T10:42:38;102333.34;;;17.11;100.00
29549;BME280;16487;53.094;8.800;2022-10-31T10:45:14;102354.31;;;17.36;100.00
29549;BME280;16487;53.094;8.800;2022-10-31T10:47:43;102363.13;;;17.50;100.00
29549;BME280;16487;53.094;8.800;2022-10-31T10:50:15;102369.50;;;17.13;100.00
29549;BME280;16487;53.094;8.800;2022-10-31T10:52:51;102374.03;;;17.23;100.00
29549;BME280;16487;53.094;8.800;2022-10-31T10:55:28;102361.28;;;17.81;100.00
29549;BME280;16487;53.094;8.800;2022-10-31T10:58:01;102340.38;;;18.25;100.00
29549;BME280;16487;53.094;8.800;2022-10-31T11:00:31;102314.25;;;18.12;100.00
29549;BME280;16487;53.094;8.800;2022-10-31T11:02:59;102285.88;;;18.81;100.00
29549;BME280;16487;53.094;8.800;2022-10-31T11:05:33;102245.31;;;19.45;100.00
29549;BME280;16487;53.094;8.800;2022-10-31T11:08:02;102194.13;;;19.70;100.00
29549;BME280;16487;53.094;8.800;2022-10-31T11:10:29;102190.78;;;19.35;100.00
29549;BME280;16487;53.094;8.800;2022-10-31T11:13:02;102191.78;;;19.69;100.00
29549;BME280;16487;53.094;8.800;2022-10-31T11:15:32;102178.34;;;20.14;100.00
29549;BME280;16487;53.094;8.800;2022-10-31T11:18:01;102158.38;;;20.09;100.00
29549;BME280;16487;53.094;8.800;2022-10-31T11:20:30;102154.22;;;20.46;100.00
29549;BME280;16487;53.094;8.800;2022-10-31T11:23:05;102146.09;;;20.30;100.00
29549;BME280;16487;53.094;8.800;2022-10-31T11:25:48;102142.09;;;20.45;100.00
29549;BME280;16487;53.094;8.800;2022-10-31T11:28:15;102130.69;;;20.22;100.00
29549;BME280;16487;53.094;8.800;2022-10-31T11:30:45;102134.22;;;19.72;100.00
29549;BME280;16487;53.094;8.800;2022-10-31T11:33:19;102140.38;;;19.61;100.00
29549;BME280;16487;53.094;8.800;2022-10-31T11:35:47;102143.16;;;19.79;100.00
29549;BME280;16487;53.094;8.800;2022-10-31T11:38:25;102132.72;;;20.30;100.00
29549;BME280;16487;53.094;8.800;2022-10-31T11:40:57;102126.47;;;20.08;100.00
29549;BME280;16487;53.094;8.800;2022-10-31T11:43:25;102127.97;;;19.50;100.00
29549;BME280;16487;53.094;8.800;2022-10-31T11:45:53;102131.81;;;19.16;100.00
29549;BME280;16487;53.094;8.800;2022-10-31T11:48:22;102142.81;;;19.14;100.00
29549;BME280;16487;53.094;8.800;2022-10-31T11:50:55;102138.50;;;18.82;100.00
29549;BME280;16487;53.094;8.800;2022-10-31T11:53:28;102144.06;;;19.04;100.00
29549;BME280;16487;53.094;8.800;2022-10-31T11:56:03;102146.69;;;18.50;100.00
29549;BME280;16487;53.094;8.800;2022-10-31T11:58:31;102164.22;;;18.14;100.00
29549;BME280;16487;53.094;8.800;2022-10-31T12:00:59;102174.91;;;17.97;100.00
29549;BME280;16487;53.094;8.800;2022-10-31T12:03:43;102180.78;;;17.81;100.00
29549;BME280;16487;53.094;8.800;2022-10-31T12:06:18;102200.94;;;17.58;100.00
29549;BME280;16487;53.094;8.800;2022-10-31T12:08:47;102228.97;;;17.74;100.00
29549;BME280;16487;53.094;8.800;2022-10-31T12:11:31;102213.16;;;18.20;100.00
29549;BME280;16487;53.094;8.800;2022-10-31T12:14:12;102211.03;;;18.55;100.00
29549;BME280;16487;53.094;8.800;2022-10-31T12:16:48;102178.31;;;19.24;100.00
29549;BME280;16487;53.094;8.800;2022-10-31T12:19:23;102155.13;;;19.56;100.00
29549;BME280;16487;53.094;8.800;2022-10-31T12:22:05;102136.13;;;19.38;100.00
29549;BME280;16487;53.094;8.800;2022-10-31T12:25:11;102148.31;;;19.17;100.00
29549;BME280;16487;53.094;8.800;2022-10-31T12:27:56;102155.69;;;18.57;100.00
29549;BME280;16487;53.094;8.800;2022-10-31T12:30:38;102164.69;;;17.91;100.00
29549;BME280;16487;53.094;8.800;2022-10-31T12:33:37;102197.78;;;17.44;100.00
29549;BME280;16487;53.094;8.800;2022-10-31T12:36:21;102244.53;;;16.82;100.00
29549;BME280;16487;53.094;8.800;2022-10-31T12:39:06;102291.59;;;16.69;100.00
29549;BME280;16487;53.094;8.800;2022-10-31T12:41:45;102325.25;;;16.60;100.00
29549;BME280;16487;53.094;8.800;2022-10-31T12:44:27;102355.72;;;16.77;100.00
29549;BME280;16487;53.094;8.800;2022-10-31T12:47:15;102366.47;;;17.20;100.00
29549;BME280;16487;53.094;8.800;2022-10-31T12:49:56;102362.66;;;17.14;100.00
29549;BME280;16487;53.094;8.800;2022-10-31T12:52:43;102345.09;;;17.60;100.00
29549;BME280;16487;53.094;8.800;2022-10-31T12:55:30;102314.06;;;17.60;100.00
29549;BME280;16487;53.094;8.800;2022-10-31T12:58:04;102305.16;;;17.11;100.00
29549;BME280;16487;53.094;8.800;2022-10-31T13:00:35;102311.91;;;16.89;100.00
29549;BME280;16487;53.094;8.800;2022-10-31T13:03:14;102336.16;;;16.58;100.00
29549;BME280;16487;53.094;8.800;2022-10-31T13:05:46;102357.47;;;16.43;100.00
29549;BME280;16487;53.094;8.800;2022-10-31T13:08:17;102361.91;;;16.28;100.00
29549;BME280;16487;53.094;8.800;2022-10-31T13:10:48;102395.19;;;16.17;100.00
29549;BME280;16487;53.094;8.800;2022-10-31T13:13:23;102419.25;;;16.18;100.00
29549;BME280;16487;53.094;8.800;2022-10-31T13:15:56;102443.63;;;16.24;100.00
29549;BME280;16487;53.094;8.800;2022-10-31T13:18:30;102455.38;;;16.35;100.00
29549;BME280;16487;53.094;8.800;2022-10-31T13:21:02;102456.38;;;16.29;100.00